Surgut, Russia

08:56 +05 25. Veebruar 2018 (GMT +0500)
Surgut | | Change Station

Elev 144 ft 61.25 °N, 73.50 °E | Updated 26 minutes ago

Udu
Udu
-17 °F
Feels Like -17 °F
Põhja
2
Tuul Muutliku suunaga Tuul from Muutliku suunaga

Täna
High -- | Low -- °F
--% Chance of Precip.
Eile
High -- | Low -- °F
Precip. -- tolli
Õhurõhk 30.24 tolli
Nähtavus 0.7 miili
Pilved Hajus pilvisus 700 ft
Peamiselt pilves 2000 ft
Kastepunkt -20 °F
Õhuniiskus 84%
Sademed 0.00 tolli
Lume paksus Not available.
7:18 AM 5:18 PM
Kasvav kuu, 70% visible
METAR USRR 250330Z VRB01MPS 1200 0500SW R25/1200N FZFG SCT007 BKN020 M27/M29 Q1024 R25/490238 NOSIG RMK OBST OBSC QFE763
Õhurõhk 30.24 tolli
Nähtavus 0.7 miili
Pilved Hajus pilvisus 700 ft
Peamiselt pilves 2000 ft
Kastepunkt -20 °F
Õhuniiskus 84%
Sademed 0.00 tolli
Lume paksus Not available.
7:18 AM 5:18 PM
Kasvav kuu, 70% visible
METAR USRR 250330Z VRB01MPS 1200 0500SW R25/1200N FZFG SCT007 BKN020 M27/M29 Q1024 R25/490238 NOSIG RMK OBST OBSC QFE763

Get Severe Weather Alerts

Thanks for signing up!

Be on the lookout for a verification email in your inbox.

You'll start receiving the daily forecast at 6 AM.

×

10-Day Weather Forecast

×

Almanac

Astronoomia

Feb. 25, 2018 Tõus Loojang
Tegelik aeg
Tsiviilne hämarik
Nautiline hämarik
Astronoomiline hämarik
Kuu
Nähtava valguse kestus
Päeva pikkus
Tomorrow will be .
, % of the Moon is Illuminated

Tänased ekstreemumid

Country Highs Country Lows

Community

WunderPhotos

Category 6

Welcome to Category 6. This is the collective home for Weather Underground's featured writeups by Dr. Jeff Masters (right), Bob Henson (left), Chris Burt, and other regular contributors.

Nearby

Õhukvaliteet

  Õhukvaliteet ÕK indeks Reostaja
Not available.

Lume paksus

Station Depth Kõrgus

Maavärinate aktiivsus

Linn Distance Mag. Time & Date
Minimum magnitude displayed is 2.5.

Coastal Water Temperatures

Koht Temperatuur

Stations

Nearby Weather Stations

Jaama asukoht Temp. Tuulekülm Kastepunkt Õhuniiskus Tuul Precip. Elev Uuendatud Tüüp